createdAt,value
2023-05-02T04:16:51.887Z,15.00
2023-05-02T04:17:52.869Z,16.30
2023-05-02T04:20:08.335Z,14.70
2023-05-02T04:21:04.466Z,16.00
2023-05-02T04:22:04.353Z,14.70
2023-05-02T04:23:04.344Z,14.70
2023-05-02T04:24:04.365Z,14.90
2023-05-02T04:25:10.855Z,15.40
2023-05-02T04:26:23.777Z,14.80
2023-05-02T04:27:12.444Z,14.20
2023-05-02T04:28:12.013Z,15.00
2023-05-02T04:29:10.853Z,14.90
2023-05-02T04:30:12.048Z,15.30
2023-05-02T04:31:13.716Z,14.10
2023-05-02T04:32:04.235Z,14.30
2023-05-02T04:33:04.294Z,13.90
2023-05-02T04:34:10.770Z,13.70
2023-05-02T04:35:10.801Z,15.00
2023-05-02T04:36:10.727Z,14.20
2023-05-02T04:37:12.160Z,13.50
2023-05-02T04:38:10.741Z,13.90
2023-05-02T04:39:12.164Z,13.70
2023-05-02T04:40:12.184Z,13.50
2023-05-02T04:41:12.200Z,13.50
2023-05-02T04:42:12.204Z,13.80
2023-05-02T04:43:10.696Z,12.80
2023-05-02T04:44:04.112Z,14.00
2023-05-02T04:45:04.111Z,13.00
2023-05-02T04:46:11.697Z,13.40
2023-05-02T04:47:11.725Z,13.10
2023-05-02T04:48:10.732Z,12.50
2023-05-02T04:49:10.605Z,12.90
2023-05-02T04:50:10.617Z,12.80
2023-05-02T04:51:13.452Z,12.20
2023-05-02T04:52:04.026Z,12.60
2023-05-02T04:53:10.564Z,12.50
2023-05-02T04:54:10.574Z,12.60
2023-05-02T04:55:10.896Z,12.50
2023-05-02T04:56:04.000Z,12.90
2023-05-02T04:57:10.524Z,11.90
2023-05-02T04:58:10.521Z,12.00
2023-05-02T04:59:10.566Z,12.70
2023-05-02T05:00:10.900Z,13.10
2023-05-02T05:01:27.080Z,12.90
2023-05-02T05:02:04.057Z,12.30
2023-05-02T05:03:10.690Z,13.00
2023-05-02T05:04:10.685Z,12.40
2023-05-02T05:05:03.950Z,11.70
2023-05-02T05:06:03.923Z,12.30
2023-05-02T05:07:11.442Z,12.60
2023-05-02T05:08:12.021Z,12.30
2023-05-02T05:09:10.398Z,12.70
2023-05-02T05:10:10.389Z,12.70
2023-05-02T05:11:17.530Z,12.60
2023-05-02T05:12:10.384Z,12.20
2023-05-02T05:13:10.348Z,11.10
2023-05-02T05:14:11.628Z,12.50
2023-05-02T05:15:10.341Z,11.80
2023-05-02T05:16:13.415Z,12.30
2023-05-02T05:17:10.276Z,12.40
2023-05-02T05:18:10.327Z,13.20
2023-05-02T05:19:11.844Z,11.90
2023-05-02T05:20:03.738Z,12.10
2023-05-02T05:21:11.745Z,12.60
2023-05-02T05:22:10.234Z,13.20
2023-05-02T05:24:13.960Z,12.70
2023-05-02T05:25:21.481Z,12.80
2023-05-02T05:26:23.377Z,11.80
2023-05-02T05:27:21.466Z,12.50
2023-05-02T05:28:21.449Z,12.00
2023-05-02T05:29:21.404Z,11.40
2023-05-02T05:30:21.662Z,12.80
2023-05-02T05:31:33.283Z,12.90
2023-05-02T05:32:15.027Z,12.50
2023-05-02T05:33:14.964Z,12.00
2023-05-02T05:34:21.670Z,11.90
2023-05-02T05:35:14.832Z,12.10
2023-05-02T05:36:15.661Z,11.70
2023-05-02T05:37:14.813Z,11.70
2023-05-02T05:38:14.799Z,12.60
2023-05-02T05:39:14.779Z,12.30
2023-05-02T05:40:21.630Z,12.60
2023-05-02T05:41:32.058Z,11.30
2023-05-02T05:43:25.342Z,11.40
2023-05-02T05:44:26.328Z,11.40
2023-05-02T05:45:36.521Z,11.30
2023-05-02T05:46:33.917Z,11.70
2023-05-02T05:47:33.063Z,10.40
2023-05-02T05:48:34.461Z,11.00
2023-05-02T05:49:32.796Z,11.80
2023-05-02T05:50:54.265Z,11.60
2023-05-02T05:52:45.914Z,10.60
2023-05-02T05:53:38.369Z,10.90
2023-05-02T05:54:38.280Z,12.20
2023-05-02T05:56:50.708Z,11.70
2023-05-02T05:57:59.429Z,11.20
2023-05-02T05:58:59.853Z,11.60
2023-05-02T05:59:51.682Z,11.40
2023-05-02T06:03:41.922Z,12.00
2023-05-02T06:04:31.928Z,11.40
2023-05-02T06:07:14.192Z,10.70
2023-05-02T06:07:54.187Z,11.30
2023-05-02T06:09:00.732Z,10.90
2023-05-02T06:09:55.253Z,11.70
2023-05-02T06:12:42.217Z,12.20
2023-05-02T06:15:03.719Z,11.60
2023-05-02T06:17:11.816Z,11.20
2023-05-02T06:18:12.827Z,11.80
2023-05-02T06:20:38.120Z,11.60
2023-05-02T06:21:24.902Z,11.30
2023-05-02T06:22:24.828Z,11.30
2023-05-02T06:34:14.790Z,10.70
2023-05-02T06:38:57.748Z,10.20
2023-05-02T06:41:17.284Z,10.50
2023-05-02T06:42:12.399Z,10.50
2023-05-02T06:48:51.573Z,10.20
2023-05-02T06:55:55.875Z,11.00
2023-05-02T06:58:23.425Z,11.20
2023-05-02T07:00:40.479Z,10.20
2023-05-02T07:04:07.330Z,10.40
2023-05-02T07:15:58.292Z,10.30
2023-05-02T07:16:59.446Z,10.60
2023-05-02T07:17:45.095Z,10.00
2023-05-02T07:18:58.524Z,10.90
2023-05-02T07:19:51.248Z,11.20
2023-05-02T07:20:59.759Z,10.30
2023-05-02T07:21:58.892Z,9.80
2023-05-02T07:22:59.146Z,10.30
2023-05-02T07:23:44.977Z,9.60
2023-05-02T07:24:45.981Z,10.10
2023-05-02T07:25:44.957Z,9.70
2023-05-02T07:26:44.965Z,9.40
2023-05-02T07:27:44.961Z,9.90
2023-05-02T07:28:44.931Z,10.10
2023-05-02T07:48:45.098Z,9.00
2023-05-02T07:49:53.016Z,9.70
2023-05-02T07:52:14.121Z,8.40
2023-05-02T07:53:04.599Z,8.20
2023-05-02T07:54:04.653Z,8.40
2023-05-02T07:55:13.391Z,7.90
2023-05-02T07:56:12.844Z,8.50
2023-05-02T07:57:12.829Z,7.80
2023-05-02T07:58:04.545Z,8.10
2023-05-02T07:59:11.237Z,8.30
2023-05-02T08:00:11.808Z,7.80
2023-05-02T08:01:23.905Z,7.40
2023-05-02T08:02:11.158Z,7.90
2023-05-02T08:06:36.700Z,7.90
2023-05-02T08:07:44.297Z,7.50
2023-05-02T08:08:43.918Z,7.30
2023-05-02T08:09:43.887Z,7.90
2023-05-02T08:10:43.818Z,7.40
2023-05-02T08:11:55.858Z,7.40
2023-05-02T08:13:57.239Z,7.70
2023-05-02T08:14:49.275Z,7.50
2023-05-02T08:15:56.759Z,7.60
2023-05-02T08:16:56.730Z,7.30
2023-05-02T08:17:49.393Z,7.30
2023-05-02T08:18:56.003Z,7.00
2023-05-02T08:19:56.986Z,6.80
2023-05-02T08:20:55.903Z,7.30
2023-05-02T08:21:56.031Z,6.70
2023-05-02T08:22:57.950Z,7.10
2023-05-02T08:23:55.957Z,7.10
2023-05-02T08:24:49.175Z,6.20
2023-05-02T08:25:49.172Z,6.20
2023-05-02T08:27:07.434Z,6.20
2023-05-02T08:27:49.174Z,5.70
2023-05-02T08:28:49.154Z,5.50
2023-05-02T08:29:49.130Z,5.60
2023-05-02T08:30:55.750Z,6.00
2023-05-02T08:31:56.939Z,5.20
2023-05-02T08:32:55.804Z,5.00
2023-05-02T08:33:55.492Z,5.20
2023-05-02T08:34:55.820Z,5.30
2023-05-02T08:35:58.440Z,5.50
2023-05-02T08:36:58.355Z,5.30
2023-05-02T08:37:55.216Z,5.40
2023-05-02T08:38:55.787Z,5.60
2023-05-02T08:39:55.273Z,5.70
2023-05-02T08:41:03.056Z,5.20
2023-05-02T08:41:49.005Z,5.50
2023-05-02T08:42:57.556Z,6.00
2023-05-02T08:43:55.494Z,5.80
2023-05-02T08:44:56.675Z,5.70
2023-05-02T08:47:02.322Z,5.30
2023-05-02T08:48:03.317Z,5.40
2023-05-02T08:49:03.231Z,6.30
2023-05-02T08:50:11.250Z,6.00
2023-05-02T08:51:14.989Z,6.20
2023-05-02T08:52:09.740Z,6.10
2023-05-02T08:53:11.282Z,6.60
2023-05-02T08:54:03.224Z,6.70
2023-05-02T08:55:03.292Z,6.10
2023-05-02T08:56:32.839Z,6.20
2023-05-02T08:57:09.717Z,5.80
2023-05-02T08:58:29.354Z,5.80
2023-05-02T08:59:10.872Z,6.60
2023-05-02T09:00:10.876Z,6.00
2023-05-02T09:01:13.901Z,6.50
2023-05-02T09:02:09.931Z,6.10
2023-05-02T09:03:03.151Z,6.20
2023-05-02T09:04:09.606Z,5.90
2023-05-02T09:05:10.934Z,6.00
2023-05-02T09:06:15.626Z,5.70
2023-05-02T09:07:03.038Z,5.20
2023-05-02T09:08:03.031Z,4.80
2023-05-02T09:09:09.586Z,4.40
2023-05-02T09:10:11.503Z,4.30
2023-05-02T09:11:02.992Z,4.40
2023-05-02T09:12:10.998Z,4.00
2023-05-02T09:13:02.965Z,4.30
2023-05-02T09:14:14.102Z,4.00
2023-05-02T09:15:03.396Z,4.20
2023-05-02T09:16:09.829Z,4.00
2023-05-02T09:17:11.116Z,3.30
2023-05-02T09:18:09.720Z,3.80
2023-05-02T09:19:09.575Z,3.70
2023-05-02T09:20:02.899Z,3.60
2023-05-02T09:21:09.520Z,3.50
2023-05-02T09:22:09.501Z,3.50
2023-05-02T09:23:09.384Z,3.40
2023-05-02T09:24:05.736Z,3.30
2023-05-02T09:25:09.463Z,3.30
2023-05-02T09:26:10.650Z,3.70
2023-05-02T09:27:17.475Z,3.40
2023-05-02T09:28:10.716Z,2.90
2023-05-02T09:29:09.333Z,3.20
2023-05-02T09:30:11.211Z,2.80
2023-05-02T09:31:13.528Z,3.20
2023-05-02T09:32:11.204Z,3.10
2023-05-02T09:33:09.353Z,3.00
2023-05-02T09:34:10.831Z,2.80
2023-05-02T09:35:10.056Z,2.90
2023-05-02T09:36:11.820Z,2.80
2023-05-02T09:37:09.505Z,2.90
2023-05-02T09:38:02.905Z,2.80
2023-05-02T09:39:02.664Z,2.80
2023-05-02T09:40:11.340Z,3.30
2023-05-02T09:41:10.895Z,3.20
2023-05-02T09:43:42.814Z,3.30
2023-05-02T09:47:29.549Z,3.30
2023-05-02T09:48:25.540Z,3.20
2023-05-02T09:49:25.526Z,3.40
2023-05-02T09:50:25.725Z,3.40
2023-05-02T09:52:37.544Z,3.20
2023-05-02T09:55:09.429Z,3.20
2023-05-02T09:58:41.170Z,3.00
2023-05-02T10:01:15.225Z,3.20
2023-05-02T10:02:05.025Z,3.20
2023-05-02T10:03:06.980Z,3.80
2023-05-02T10:04:08.501Z,3.40
2023-05-02T10:05:05.944Z,3.70
2023-05-02T10:06:26.294Z,3.70
2023-05-02T10:08:24.255Z,3.70
2023-05-02T10:09:16.586Z,3.60
2023-05-02T10:10:13.094Z,3.30
2023-05-02T10:11:13.096Z,3.50
2023-05-02T10:12:19.609Z,3.60
2023-05-02T10:13:19.634Z,3.80
2023-05-02T10:14:19.683Z,3.50
2023-05-02T10:15:20.665Z,3.50
2023-05-02T10:16:31.245Z,3.60
2023-05-02T10:17:13.028Z,3.40
2023-05-02T10:18:19.645Z,3.60
2023-05-02T10:19:19.627Z,3.10
2023-05-02T10:20:20.956Z,3.20
2023-05-02T10:21:26.009Z,3.40
2023-05-02T10:22:20.996Z,3.40
2023-05-02T10:23:19.620Z,3.20
2023-05-02T10:24:21.032Z,3.30
2023-05-02T10:25:12.998Z,3.30
2023-05-02T10:27:32.010Z,3.00
2023-05-02T10:28:30.684Z,3.30
2023-05-02T10:29:30.660Z,3.30
2023-05-02T10:30:33.089Z,3.30
2023-05-02T10:31:38.312Z,3.00
2023-05-02T10:32:31.675Z,3.40
2023-05-02T10:33:30.623Z,3.60
2023-05-02T10:34:33.178Z,3.50
2023-05-02T10:35:30.659Z,3.90
2023-05-02T10:36:42.285Z,3.80
2023-05-02T10:38:34.512Z,4.00
2023-05-02T10:39:43.579Z,4.30
2023-05-02T10:40:43.805Z,4.20
2023-05-02T10:41:42.148Z,4.20
2023-05-02T10:42:42.522Z,4.20
2023-05-02T10:43:41.980Z,4.50
2023-05-02T10:44:43.636Z,4.00
2023-05-02T10:45:41.950Z,3.90
2023-05-02T10:46:59.130Z,4.60
2023-05-02T10:47:42.108Z,4.50
2023-05-02T10:48:43.292Z,4.60
2023-05-02T10:49:42.076Z,5.20
2023-05-02T10:50:35.329Z,4.60
2023-05-02T10:51:46.251Z,4.70
2023-05-02T10:52:35.372Z,5.40
2023-05-02T10:53:41.891Z,4.70
2023-05-02T10:54:43.253Z,4.60
2023-05-02T10:55:41.844Z,5.00
2023-05-02T10:57:01.824Z,4.70
2023-05-02T10:57:35.265Z,5.30
2023-05-02T10:58:43.300Z,4.80
2023-05-02T10:59:41.802Z,5.00
2023-05-02T11:00:41.825Z,5.10
2023-05-02T11:01:50.916Z,5.20
2023-05-02T11:02:43.513Z,5.30
2023-05-02T11:03:41.864Z,5.20
2023-05-02T11:04:43.405Z,5.50
2023-05-02T11:05:41.817Z,5.60
2023-05-02T11:06:44.518Z,6.20
2023-05-02T11:07:41.793Z,6.10
2023-05-02T11:08:42.994Z,5.90
2023-05-02T11:09:41.732Z,5.60
2023-05-02T11:10:43.009Z,5.70
2023-05-02T11:11:43.491Z,6.90
2023-05-02T11:12:43.049Z,6.60
2023-05-02T11:13:41.634Z,6.20
2023-05-02T11:14:41.652Z,6.30
2023-05-02T11:15:43.110Z,6.00
2023-05-02T11:16:43.171Z,5.50
2023-05-02T11:17:41.659Z,5.40
2023-05-02T11:18:41.603Z,5.30
2023-05-02T11:26:19.933Z,4.50
2023-05-02T11:27:23.634Z,4.50
2023-05-02T11:30:37.254Z,3.70
2023-05-02T11:31:29.608Z,3.40
2023-05-02T11:34:51.616Z,3.30
2023-05-02T11:36:00.696Z,3.60
2023-05-02T11:37:25.333Z,3.00
2023-05-02T11:44:35.939Z,2.50
2023-05-02T11:45:36.937Z,2.60
2023-05-02T11:47:47.528Z,2.70
2023-05-02T11:48:56.561Z,2.90
2023-05-02T11:49:54.987Z,2.60
2023-05-02T11:50:56.590Z,2.70
2023-05-02T11:51:48.425Z,2.80
2023-05-02T11:52:54.997Z,2.60
2023-05-02T11:53:56.607Z,2.80
2023-05-02T11:54:56.638Z,2.70
2023-05-02T11:55:56.667Z,2.70
2023-05-02T11:56:56.173Z,2.50
2023-05-02T11:57:56.188Z,2.30
2023-05-02T11:58:56.208Z,2.30
2023-05-02T11:59:56.261Z,2.40
2023-05-02T12:00:55.120Z,2.60
2023-05-02T12:01:56.248Z,2.90
2023-05-02T12:02:54.941Z,2.80
2023-05-02T12:03:56.309Z,2.50
2023-05-02T12:04:56.131Z,2.40
2023-05-02T12:05:56.387Z,2.50
2023-05-02T12:06:54.892Z,2.40
2023-05-02T12:07:56.347Z,2.40
2023-05-02T12:08:54.808Z,2.40
2023-05-02T12:09:56.364Z,2.50
2023-05-02T12:11:04.635Z,2.30
2023-05-02T12:11:56.408Z,2.60
2023-05-02T12:12:54.796Z,2.20
2023-05-02T12:13:59.317Z,2.70
2023-05-02T12:14:54.726Z,2.50
2023-05-02T12:15:56.092Z,2.60
2023-05-02T12:16:54.753Z,2.40
2023-05-02T12:17:56.034Z,2.50
2023-05-02T12:18:54.726Z,2.40
2023-05-02T12:19:56.045Z,2.20
2023-05-02T12:21:04.696Z,2.60
2023-05-02T12:21:54.661Z,2.30
2023-05-02T12:22:56.128Z,2.20
2023-05-02T12:23:54.983Z,2.50
2023-05-02T12:24:56.163Z,2.50
2023-05-02T12:25:56.732Z,2.70
2023-05-02T12:26:56.164Z,2.70
2023-05-02T12:27:55.196Z,2.90
2023-05-02T12:28:56.181Z,2.60
2023-05-02T12:29:54.601Z,2.90
2023-05-02T12:30:56.227Z,2.60
2023-05-02T12:31:54.657Z,2.60
2023-05-02T12:32:55.790Z,3.10
2023-05-02T12:33:54.557Z,2.30
2023-05-02T12:34:55.788Z,2.50
2023-05-02T12:35:56.820Z,2.50
2023-05-02T12:36:56.332Z,2.20
2023-05-02T12:37:54.505Z,2.40
2023-05-02T12:38:55.873Z,2.80
2023-05-02T12:39:54.469Z,2.60
2023-05-02T12:40:55.933Z,2.60
2023-05-02T12:41:54.446Z,2.70
2023-05-02T12:42:56.440Z,2.50
2023-05-02T12:43:54.736Z,2.70
2023-05-02T12:44:55.976Z,2.60
2023-05-02T12:46:05.100Z,2.90
2023-05-02T12:46:54.407Z,2.50
2023-05-02T12:47:54.513Z,2.30
2023-05-02T12:48:54.711Z,2.50
2023-05-02T12:49:54.679Z,2.70
2023-05-02T12:50:56.570Z,2.40
2023-05-02T12:51:54.382Z,2.40
2023-05-02T12:52:55.586Z,2.50
2023-05-02T12:53:54.313Z,2.40
2023-05-02T13:00:28.951Z,2.50
2023-05-02T13:01:38.184Z,2.90
2023-05-02T13:02:36.825Z,2.60
2023-05-02T13:03:36.526Z,3.30
2023-05-02T13:04:36.448Z,2.80
2023-05-02T13:05:48.462Z,2.70
2023-05-02T13:06:36.463Z,3.00
2023-05-02T13:07:37.679Z,2.50
2023-05-02T13:08:36.737Z,2.50
2023-05-02T13:09:38.217Z,2.60
2023-05-02T13:10:37.838Z,2.60
2023-05-02T13:11:36.965Z,2.80
2023-05-02T13:12:36.373Z,2.80
2023-05-02T13:13:36.659Z,2.90
2023-05-02T13:14:37.791Z,3.10
2023-05-02T13:23:21.346Z,2.60
2023-05-02T13:24:29.203Z,2.90
2023-05-02T13:29:54.317Z,2.80
2023-05-02T13:31:01.859Z,3.00
2023-05-02T13:32:03.391Z,3.10
2023-05-02T13:33:02.268Z,3.20
2023-05-02T13:34:01.811Z,3.20
2023-05-02T13:35:03.958Z,3.20
2023-05-02T13:36:01.795Z,3.30
2023-05-02T13:37:01.810Z,3.40
2023-05-02T13:38:02.066Z,3.00
2023-05-02T13:39:01.762Z,2.80
2023-05-02T13:40:03.373Z,3.00
2023-05-02T13:41:03.118Z,2.70
2023-05-02T13:42:03.750Z,2.60
2023-05-02T13:43:01.692Z,2.70
2023-05-02T13:44:03.593Z,3.20
2023-05-02T13:45:03.634Z,2.50
2023-05-02T13:46:01.756Z,2.50
2023-05-02T13:47:01.999Z,3.00
2023-05-02T13:48:02.072Z,2.80
2023-05-02T13:49:03.157Z,2.80
2023-05-02T13:50:03.057Z,2.90
2023-05-02T13:51:01.633Z,2.90
2023-05-02T13:52:03.217Z,2.80
2023-05-02T13:53:03.260Z,2.70
2023-05-02T13:54:02.090Z,2.80
2023-05-02T13:55:02.765Z,2.70
2023-05-02T13:56:02.199Z,2.90
2023-05-02T13:57:03.281Z,2.70
2023-05-02T13:58:03.289Z,2.50
2023-05-02T13:59:01.550Z,2.70
2023-05-02T14:00:04.147Z,3.00
2023-05-02T14:01:03.008Z,2.70
2023-05-02T14:02:03.471Z,3.00
2023-05-02T14:03:01.536Z,2.90
2023-05-02T14:04:03.037Z,2.90
2023-05-02T14:05:01.469Z,3.10
2023-05-02T14:06:03.027Z,2.90
2023-05-02T14:07:01.516Z,2.90
2023-05-02T14:08:01.504Z,2.80
2023-05-02T14:09:03.016Z,2.80
2023-05-02T14:10:01.714Z,3.10
2023-05-02T14:11:01.398Z,2.90
2023-05-02T14:12:01.402Z,2.60
2023-05-02T14:13:03.068Z,3.10
2023-05-02T14:14:01.375Z,3.10
2023-05-02T14:15:05.639Z,3.20
2023-05-02T14:16:02.637Z,3.10
2023-05-02T14:17:03.576Z,3.20
2023-05-02T14:18:01.667Z,3.30
2023-05-02T14:19:01.621Z,3.00
2023-05-02T14:20:03.428Z,3.00
2023-05-02T14:23:12.584Z,2.90
2023-05-02T14:24:19.231Z,3.20
2023-05-02T14:25:18.726Z,3.00
2023-05-02T14:26:17.432Z,2.90
2023-05-02T14:27:17.421Z,3.20
2023-05-02T14:28:19.297Z,3.00
2023-05-02T14:29:18.000Z,3.10
2023-05-02T14:32:39.452Z,2.80
2023-05-02T14:33:47.235Z,3.40
2023-05-02T14:34:47.214Z,2.90
2023-05-02T14:38:08.330Z,3.20
2023-05-02T14:39:17.304Z,3.20
2023-05-02T14:40:26.530Z,3.20
2023-05-02T14:41:17.895Z,3.10
2023-05-02T14:42:17.384Z,3.00
2023-05-02T14:43:17.381Z,3.20
2023-05-02T14:44:15.831Z,3.20
2023-05-02T14:45:17.420Z,3.00
2023-05-02T14:46:17.435Z,3.10
2023-05-02T14:47:18.100Z,2.90
2023-05-02T14:48:17.099Z,2.80
2023-05-02T14:49:17.473Z,2.80
2023-05-02T14:50:17.018Z,3.00
2023-05-02T14:51:16.044Z,2.90
2023-05-02T14:52:17.534Z,3.00
2023-05-02T14:53:17.575Z,2.90
2023-05-02T14:54:16.005Z,3.10
2023-05-02T15:15:26.538Z,3.50
2023-05-02T15:16:31.081Z,3.20
2023-05-02T15:17:30.763Z,2.80
2023-05-02T15:18:30.786Z,3.30
2023-05-02T15:19:32.872Z,3.20
2023-05-02T15:20:36.175Z,3.10
2023-05-02T15:21:32.505Z,3.00
2023-05-02T15:22:31.016Z,3.30
2023-05-02T15:23:30.968Z,3.10
2023-05-02T15:24:32.458Z,3.20
2023-05-02T15:25:32.505Z,3.10
2023-05-02T15:26:30.623Z,3.10
2023-05-02T15:27:30.958Z,3.20
2023-05-02T15:28:32.033Z,3.30
2023-05-02T15:29:30.904Z,3.20
2023-05-02T15:35:09.461Z,3.10
2023-05-02T15:36:12.345Z,3.30
2023-05-02T15:37:12.902Z,3.20
2023-05-02T15:38:11.301Z,3.50
2023-05-02T15:39:11.311Z,3.60
2023-05-02T15:41:21.552Z,3.30
2023-05-02T15:42:29.708Z,3.40
2023-05-02T15:43:30.648Z,3.30
2023-05-02T15:44:29.061Z,3.40
2023-05-02T15:45:30.670Z,3.10
2023-05-02T15:46:29.133Z,3.40
2023-05-02T15:47:29.015Z,3.50
2023-05-02T15:48:29.378Z,3.20
2023-05-02T15:49:29.043Z,3.70
2023-05-02T15:51:29.606Z,3.40
2023-05-02T15:52:37.769Z,3.50
2023-05-02T15:53:37.125Z,4.00
2023-05-02T15:54:38.634Z,3.80
2023-05-02T15:55:39.670Z,3.80
2023-05-02T15:56:38.679Z,3.60
2023-05-02T15:57:37.372Z,3.70
2023-05-02T15:58:37.389Z,3.50
2023-05-02T15:59:39.225Z,4.00
2023-05-02T16:00:39.570Z,3.90
2023-05-02T16:01:37.384Z,3.70
2023-05-02T16:02:40.327Z,3.80
2023-05-02T16:03:37.144Z,3.40
2023-05-02T16:04:38.421Z,3.30
2023-05-02T16:05:43.782Z,3.70
2023-05-02T16:06:39.362Z,3.60
2023-05-02T16:07:37.570Z,3.60
2023-05-02T16:08:38.382Z,3.50
2023-05-02T16:09:36.959Z,3.60
2023-05-02T16:10:40.292Z,3.50
2023-05-02T16:11:38.446Z,3.30
2023-05-02T16:12:37.219Z,3.40
2023-05-02T16:13:36.882Z,3.50
2023-05-02T16:14:38.475Z,3.60
2023-05-02T17:14:15.862Z,3.30
2023-05-02T17:15:15.426Z,3.60
2023-05-02T17:16:17.565Z,3.40
2023-05-02T17:17:15.406Z,3.50
2023-05-02T17:18:15.988Z,3.30
2023-05-02T17:21:23.894Z,3.70
2023-05-02T17:22:31.669Z,3.50
2023-05-02T17:23:34.361Z,4.30
2023-05-02T17:24:32.868Z,3.40
2023-05-02T17:25:32.884Z,3.20
2023-05-02T17:26:32.886Z,3.10
2023-05-02T17:27:33.386Z,3.10
2023-05-02T17:28:38.147Z,2.90
2023-05-02T17:29:32.951Z,3.00
2023-05-02T17:30:31.313Z,3.20
2023-05-02T17:31:33.588Z,3.10
2023-05-02T17:32:31.335Z,3.10
2023-05-02T17:33:34.081Z,2.90
2023-05-02T17:34:30.916Z,2.70
2023-05-02T17:35:31.287Z,2.80
2023-05-02T17:36:31.268Z,2.70
2023-05-02T17:37:31.905Z,2.80
2023-05-02T17:38:36.901Z,2.80
2023-05-02T17:39:31.537Z,2.70
2023-05-02T17:40:31.212Z,3.10
2023-05-02T17:41:32.589Z,3.20
2023-05-02T17:42:31.204Z,3.00
2023-05-02T17:43:38.122Z,3.00
2023-05-02T17:44:32.652Z,2.70
2023-05-02T17:45:31.187Z,2.40
2023-05-02T17:46:31.198Z,2.60
2023-05-02T17:47:33.199Z,2.70
2023-05-02T17:50:34.612Z,2.30
2023-05-02T17:51:41.968Z,2.20
2023-05-02T17:52:42.282Z,2.90
2023-05-02T17:53:46.838Z,2.50
2023-05-02T17:54:43.434Z,2.30
2023-05-02T17:55:43.444Z,2.30
2023-05-02T17:56:41.977Z,2.30
2023-05-02T17:57:43.473Z,2.40
2023-05-02T17:58:44.345Z,2.40
2023-05-02T17:59:42.190Z,2.40
2023-05-02T18:00:43.537Z,2.40
2023-05-02T18:01:43.585Z,2.40
2023-05-02T18:02:44.643Z,2.40
2023-05-02T18:03:43.197Z,2.40
2023-05-02T18:04:44.765Z,2.50
2023-05-02T18:05:41.839Z,2.40
2023-05-02T18:06:42.157Z,2.40
2023-05-02T18:07:50.534Z,2.70
2023-05-02T18:08:43.164Z,2.30
2023-05-02T18:09:43.172Z,2.40
2023-05-02T18:10:41.792Z,2.40
2023-05-02T18:11:43.215Z,2.40
2023-05-02T18:12:44.239Z,2.30
2023-05-02T18:13:43.286Z,2.40
2023-05-02T18:14:43.280Z,2.60
2023-05-02T18:15:41.757Z,2.40
2023-05-02T18:16:41.949Z,2.50
2023-05-02T18:17:43.357Z,2.40
2023-05-02T18:18:44.352Z,2.30
2023-05-02T18:19:41.734Z,2.70
2023-05-02T18:20:42.886Z,2.40
2023-05-02T18:21:41.710Z,2.50
2023-05-02T18:22:41.666Z,2.50
2023-05-02T18:23:42.979Z,2.70
2023-05-02T18:24:41.687Z,2.50
2023-05-02T18:25:41.636Z,2.40
2023-05-02T18:26:41.662Z,2.70
2023-05-02T18:27:43.009Z,2.30
2023-05-02T18:28:44.577Z,2.40
2023-05-02T18:29:43.033Z,2.50
2023-05-02T18:30:43.092Z,2.40
2023-05-02T18:31:35.094Z,2.70
2023-05-02T18:32:41.601Z,2.70
2023-05-02T18:33:50.714Z,3.20
2023-05-02T18:34:43.095Z,2.80
2023-05-02T18:35:41.548Z,2.60
2023-05-02T18:36:41.506Z,2.90
2023-05-02T18:37:41.525Z,2.80
2023-05-02T18:38:43.169Z,2.50
2023-05-02T18:39:42.680Z,2.80
2023-05-02T18:40:41.473Z,2.80
2023-05-02T18:41:42.712Z,3.10
2023-05-02T18:42:41.452Z,3.00
2023-05-02T18:43:46.248Z,2.90
2023-05-02T18:44:42.774Z,2.60
2023-05-02T18:45:42.788Z,3.10
2023-05-02T18:46:42.897Z,3.10
2023-05-02T18:47:41.405Z,3.20
2023-05-02T18:48:46.081Z,2.90
2023-05-02T18:49:42.863Z,3.20
2023-05-02T18:50:41.352Z,3.30
2023-05-02T18:51:42.906Z,3.10
2023-05-02T18:52:42.939Z,3.40
2023-05-02T18:53:44.890Z,3.30
2023-05-02T18:54:42.955Z,3.20
2023-05-02T18:55:41.335Z,3.50
2023-05-02T18:56:41.310Z,3.30
2023-05-02T18:57:44.027Z,3.60
2023-05-02T18:58:42.560Z,3.20
2023-05-02T18:59:41.278Z,3.30
2023-05-02T19:00:43.596Z,3.50
2023-05-02T19:01:41.266Z,3.20
2023-05-02T19:02:41.293Z,3.00
2023-05-02T19:03:42.728Z,3.00
2023-05-02T19:04:41.211Z,3.20
2023-05-02T19:05:42.705Z,3.00
2023-05-02T19:06:42.836Z,2.70
2023-05-02T19:07:41.167Z,2.80
2023-05-02T19:08:49.602Z,2.90
2023-05-02T19:09:42.805Z,2.80
2023-05-02T19:10:41.133Z,3.60
2023-05-02T19:11:41.118Z,2.90
2023-05-02T19:12:43.877Z,3.10
2023-05-02T19:13:44.162Z,3.30
2023-05-02T19:14:41.118Z,3.20
2023-05-02T19:15:41.105Z,4.00
2023-05-02T19:16:41.157Z,3.50
2023-05-02T19:17:42.404Z,3.80
2023-05-02T19:18:42.907Z,3.30
2023-05-02T19:19:42.452Z,3.30
2023-05-02T19:20:42.430Z,3.50
2023-05-02T19:21:42.446Z,3.70
2023-05-02T19:22:42.466Z,3.80
2023-05-02T19:23:43.082Z,3.50
2023-05-02T19:24:34.457Z,3.80
2023-05-02T19:25:40.986Z,3.50
2023-05-02T19:26:42.516Z,3.70
2023-05-02T19:27:42.102Z,3.80
2023-05-02T19:28:42.049Z,4.00
2023-05-02T19:29:42.565Z,3.60
2023-05-02T19:30:40.965Z,3.90
2023-05-02T19:31:42.632Z,4.30
2023-05-02T19:32:34.421Z,3.30
2023-05-02T19:33:43.602Z,3.20
2023-05-02T19:34:40.935Z,2.80
2023-05-02T19:35:40.901Z,2.90
2023-05-02T19:36:40.944Z,3.30
2023-05-02T19:37:42.167Z,3.10
2023-05-02T19:38:53.840Z,3.40
2023-05-02T19:40:48.261Z,3.50
2023-05-02T19:41:45.940Z,3.50
2023-05-02T19:42:52.438Z,3.30
2023-05-02T19:43:53.516Z,3.30
2023-05-02T19:44:45.905Z,3.30
2023-05-02T19:45:52.484Z,3.30
2023-05-02T19:46:52.411Z,3.40
2023-05-02T19:47:52.504Z,3.40
2023-05-02T19:48:53.584Z,3.40
2023-05-02T19:49:53.404Z,3.50
2023-05-02T19:50:53.614Z,3.50
2023-05-02T19:51:52.404Z,3.40
2023-05-02T19:52:53.657Z,3.30
2023-05-02T19:53:56.244Z,3.50
2023-05-02T19:54:52.386Z,3.30
2023-05-02T19:55:53.695Z,3.30
2023-05-02T19:56:52.346Z,3.40
2023-05-02T19:57:53.767Z,3.20
2023-05-02T19:58:53.780Z,3.40
2023-05-02T19:59:52.292Z,3.00
2023-05-02T20:00:52.356Z,3.20
2023-05-02T20:01:53.782Z,3.40
2023-05-02T20:02:52.350Z,3.40
2023-05-02T20:03:52.347Z,3.40
2023-05-02T20:04:53.839Z,3.30
2023-05-02T20:05:52.244Z,3.00
2023-05-02T20:06:52.301Z,3.70
2023-05-02T20:07:53.880Z,3.90
2023-05-02T20:08:53.402Z,3.80
2023-05-02T20:09:53.409Z,4.50
2023-05-02T20:10:52.164Z,4.40
2023-05-02T20:11:53.441Z,4.00
2023-05-02T20:12:53.457Z,3.70
2023-05-02T20:13:53.478Z,3.40
2023-05-02T20:14:53.967Z,4.00
2023-05-02T20:15:52.118Z,3.60
2023-05-02T20:16:53.508Z,3.80
2023-05-02T20:17:53.560Z,3.90
2023-05-02T20:18:57.867Z,4.00
2023-05-02T20:19:53.561Z,4.20
2023-05-02T20:20:52.288Z,4.80
2023-05-02T20:21:52.097Z,4.60
2023-05-02T20:22:52.065Z,4.70
2023-05-02T20:23:53.637Z,4.60
2023-05-02T20:24:52.084Z,4.80
2023-05-02T20:25:52.018Z,4.30
2023-05-02T20:26:51.986Z,5.00
2023-05-02T20:27:52.005Z,4.50
2023-05-02T20:28:53.211Z,4.90
2023-05-02T20:29:51.976Z,4.70
2023-05-02T20:30:51.972Z,4.40
2023-05-02T20:31:54.489Z,4.60
2023-05-02T20:32:52.062Z,4.50
2023-05-02T20:34:05.269Z,4.80
2023-05-02T20:36:02.433Z,4.30
2023-05-02T20:38:07.228Z,3.90
2023-05-02T20:39:14.771Z,4.50
2023-05-02T20:40:16.161Z,4.20
2023-05-02T20:41:14.762Z,3.90
2023-05-02T20:42:16.226Z,3.90
2023-05-02T20:43:16.240Z,4.00
2023-05-02T20:44:14.708Z,4.00
2023-05-02T20:45:14.721Z,3.90
2023-05-02T20:46:16.519Z,3.80
2023-05-02T20:47:16.298Z,3.90
2023-05-02T20:48:18.857Z,4.00
2023-05-02T20:49:16.328Z,4.10
2023-05-02T20:50:14.664Z,4.30
2023-05-02T20:51:15.860Z,4.50
2023-05-02T20:52:14.644Z,4.30
2023-05-02T20:53:23.760Z,4.40
2023-05-02T20:54:16.402Z,4.10
2023-05-02T20:55:14.628Z,4.20
2023-05-02T20:56:14.590Z,4.20
2023-05-02T20:57:14.621Z,4.00
2023-05-02T20:58:23.483Z,4.20
2023-05-02T20:59:16.004Z,4.20
2023-05-02T21:00:14.583Z,4.30
2023-05-02T21:01:16.067Z,4.50
2023-05-02T21:02:16.030Z,4.30
2023-05-02T21:03:18.070Z,4.10
2023-05-02T21:04:14.573Z,4.40
2023-05-02T21:05:16.055Z,4.20
2023-05-02T21:06:16.089Z,4.40
2023-05-02T21:07:17.084Z,4.10
2023-05-02T21:08:16.100Z,4.30
2023-05-02T21:09:07.918Z,4.00
2023-05-02T21:10:07.904Z,4.50
2023-05-02T21:11:07.897Z,4.30
2023-05-02T21:12:07.906Z,4.10
2023-05-02T21:13:19.492Z,4.40
2023-05-02T21:14:15.632Z,4.10
2023-05-02T21:15:14.409Z,4.30
2023-05-02T21:16:14.417Z,3.90
2023-05-02T21:17:15.678Z,4.10
2023-05-02T21:18:16.734Z,3.90
2023-05-02T21:19:15.733Z,4.10
2023-05-02T21:20:15.733Z,4.30
2023-05-02T21:21:14.330Z,4.20
2023-05-02T21:22:15.782Z,4.20
2023-05-02T21:23:15.816Z,4.20
2023-05-02T21:24:14.296Z,4.40
2023-05-02T21:25:15.814Z,4.00
2023-05-02T21:26:14.281Z,4.00
2023-05-02T21:27:14.312Z,4.00
2023-05-02T21:28:15.893Z,4.00
2023-05-02T21:29:14.244Z,3.90